# Tabular Observed and Forecast Hydrograph Information
#
# Location: Feather River - Boyds Landing (FBLC1)
#
# File Generation Time: 09/05/2026 at 06:49 AM PDT
# Data Interval: 1 Hour
#
# Most Recent Date & Time of Maximum Observed: 09/03/2026 at 06:00 AM PDT
# Maximum Observed Stage: 31.94 Feet
# Maximum Observed Flow: 8980 cfs
#
# Earliest Date & Time of Maximum Forecast: 09/05/2026 at 07:00 AM PDT
# Maximum Forecast Stage: 31.68 Feet
# Maximum Forecast Flow: 8529 cfs
#
# OBSERVED
#
# Date & Time (Local) Stage (Feet) Flow (cfs) Trend Observed Status
# ---------------------------------------------------------------------------------
08/31/2026 06 AM PDT 31.85 8824 Normal
08/31/2026 07 AM PDT 31.84 8806 - Normal
08/31/2026 08 AM PDT 31.83 8789 - Normal
08/31/2026 09 AM PDT 31.83 8789 0 Normal
08/31/2026 10 AM PDT 31.80 8737 - Normal
08/31/2026 11 AM PDT 31.82 8772 + Normal
08/31/2026 12 PM PDT 31.84 8806 + Normal
08/31/2026 01 PM PDT 31.88 8876 + Normal
08/31/2026 02 PM PDT 31.81 8754 - Normal
08/31/2026 03 PM PDT 31.81 8754 0 Normal
08/31/2026 04 PM PDT 31.86 8841 + Normal
08/31/2026 05 PM PDT 31.87 8858 + Normal
08/31/2026 06 PM PDT 31.78 8702 - Normal
08/31/2026 07 PM PDT 31.78 8702 0 Normal
08/31/2026 08 PM PDT 31.89 8893 + Normal
08/31/2026 09 PM PDT 31.81 8754 - Normal
08/31/2026 10 PM PDT 31.79 8720 - Normal
08/31/2026 11 PM PDT 31.82 8772 + Normal
09/01/2026 12 AM PDT 31.83 8789 + Normal
09/01/2026 01 AM PDT 31.83 8789 0 Normal
09/01/2026 02 AM PDT 31.80 8737 - Normal
09/01/2026 03 AM PDT 31.82 8772 + Normal
09/01/2026 04 AM PDT 31.80 8737 - Normal
09/01/2026 05 AM PDT 31.87 8858 + Normal
09/01/2026 06 AM PDT 31.87 8858 0 Normal
09/01/2026 07 AM PDT 31.83 8789 - Normal
09/01/2026 08 AM PDT 31.83 8789 0 Normal
09/01/2026 09 AM PDT 31.89 8893 + Normal
09/01/2026 10 AM PDT 31.79 8720 - Normal
09/01/2026 11 AM PDT 31.82 8772 + Normal
09/01/2026 12 PM PDT 31.85 8824 + Normal
09/01/2026 01 PM PDT 31.85 8824 0 Normal
09/01/2026 02 PM PDT 31.85 8824 0 Normal
09/01/2026 03 PM PDT 31.85 8824 0 Normal
09/01/2026 04 PM PDT 31.81 8754 - Normal
09/01/2026 05 PM PDT 31.84 8806 + Normal
09/01/2026 06 PM PDT 31.83 8789 - Normal
09/01/2026 07 PM PDT 31.84 8806 + Normal
09/01/2026 08 PM PDT 31.86 8841 + Normal
09/01/2026 09 PM PDT 31.88 8876 + Normal
09/01/2026 10 PM PDT 31.86 8841 - Normal
09/01/2026 11 PM PDT 31.84 8806 - Normal
09/02/2026 12 AM PDT 31.82 8772 - Normal
09/02/2026 01 AM PDT 31.82 8772 0 Normal
09/02/2026 02 AM PDT 31.75 8650 - Normal
09/02/2026 03 AM PDT 31.82 8772 + Normal
09/02/2026 04 AM PDT 31.84 8806 + Normal
09/02/2026 05 AM PDT 31.86 8841 + Normal
09/02/2026 06 AM PDT 31.81 8754 - Normal
09/02/2026 07 AM PDT 31.76 8668 - Normal
09/02/2026 08 AM PDT 31.88 8876 + Normal
09/02/2026 09 AM PDT 31.85 8824 - Normal
09/02/2026 10 AM PDT 31.86 8841 + Normal
09/02/2026 11 AM PDT 31.83 8789 - Normal
09/02/2026 12 PM PDT 31.83 8789 0 Normal
09/02/2026 01 PM PDT 31.84 8806 + Normal
09/02/2026 02 PM PDT 31.89 8893 + Normal
09/02/2026 03 PM PDT 31.86 8841 - Normal
09/02/2026 04 PM PDT 31.84 8806 - Normal
09/02/2026 05 PM PDT 31.85 8824 + Normal
09/02/2026 06 PM PDT 31.88 8876 + Normal
09/02/2026 07 PM PDT 31.84 8806 - Normal
09/02/2026 08 PM PDT 31.86 8841 + Normal
09/02/2026 09 PM PDT 31.87 8858 + Normal
09/02/2026 10 PM PDT 31.83 8789 - Normal
09/02/2026 11 PM PDT 31.83 8789 0 Normal
09/03/2026 12 AM PDT 31.80 8737 - Normal
09/03/2026 01 AM PDT 31.81 8754 + Normal
09/03/2026 02 AM PDT 31.84 8806 + Normal
09/03/2026 03 AM PDT 31.89 8893 + Normal
09/03/2026 04 AM PDT 31.86 8841 - Normal
09/03/2026 05 AM PDT 31.87 8858 + Normal
09/03/2026 06 AM PDT 31.94 8980 + Normal
09/03/2026 07 AM PDT 31.83 8789 - Normal
09/03/2026 08 AM PDT 31.81 8754 - Normal
09/03/2026 09 AM PDT 31.86 8841 + Normal
09/03/2026 10 AM PDT 31.86 8841 0 Normal
09/03/2026 11 AM PDT 31.84 8806 - Normal
09/03/2026 12 PM PDT 31.86 8841 + Normal
09/03/2026 01 PM PDT 31.82 8772 - Normal
09/03/2026 02 PM PDT 31.85 8824 + Normal
09/03/2026 03 PM PDT 31.87 8858 + Normal
09/03/2026 04 PM PDT 31.86 8841 - Normal
09/03/2026 05 PM PDT 31.85 8824 - Normal
09/03/2026 06 PM PDT 31.86 8841 + Normal
09/03/2026 07 PM PDT 31.89 8893 + Normal
09/03/2026 08 PM PDT 31.83 8789 - Normal
09/03/2026 09 PM PDT 31.88 8876 + Normal
09/03/2026 10 PM PDT 31.89 8893 + Normal
09/03/2026 11 PM PDT 31.84 8806 - Normal
09/04/2026 12 AM PDT 31.84 8806 0 Normal
09/04/2026 01 AM PDT 31.86 8841 + Normal
09/04/2026 02 AM PDT 31.82 8772 - Normal
09/04/2026 03 AM PDT 31.82 8772 0 Normal
09/04/2026 04 AM PDT 31.88 8876 + Normal
09/04/2026 05 AM PDT 31.88 8876 0 Normal
09/04/2026 06 AM PDT 31.83 8789 - Normal
09/04/2026 07 AM PDT 31.86 8841 + Normal
09/04/2026 08 AM PDT 31.87 8858 + Normal
09/04/2026 09 AM PDT 31.86 8841 - Normal
09/04/2026 10 AM PDT 31.89 8893 + Normal
09/04/2026 11 AM PDT 31.90 8911 + Normal
09/04/2026 12 PM PDT 31.86 8841 - Normal
09/04/2026 01 PM PDT 31.87 8858 + Normal
09/04/2026 02 PM PDT 31.86 8841 - Normal
09/04/2026 03 PM PDT 31.90 8911 + Normal
09/04/2026 04 PM PDT 31.87 8858 - Normal
09/04/2026 05 PM PDT 31.90 8911 + Normal
09/04/2026 06 PM PDT 31.91 8928 + Normal
09/04/2026 07 PM PDT 31.90 8911 - Normal
09/04/2026 08 PM PDT 31.85 8824 - Normal
09/04/2026 09 PM PDT 31.85 8824 0 Normal
09/04/2026 10 PM PDT 31.82 8772 - Normal
09/04/2026 11 PM PDT 31.80 8737 - Normal
09/05/2026 12 AM PDT 31.80 8737 0 Normal
09/05/2026 01 AM PDT 31.77 8685 - Normal
09/05/2026 02 AM PDT 31.75 8650 - Normal
09/05/2026 03 AM PDT 31.71 8581 - Normal
09/05/2026 04 AM PDT 31.67 8512 - Normal
09/05/2026 05 AM PDT 31.67 8512 0 Normal
09/05/2026 06 AM PDT 31.70 8564 + Normal
#
# FORECAST
#
# Date & Time (Local) Stage (Feet) Flow (cfs) Trend Forecast Status
# ---------------------------------------------------------------------------------
09/05/2026 07 AM PDT 31.68 8529 Normal
09/05/2026 08 AM PDT 31.67 8512 - Normal
09/05/2026 09 AM PDT 31.66 8495 - Normal
09/05/2026 10 AM PDT 31.65 8478 - Normal
09/05/2026 11 AM PDT 31.64 8460 - Normal
09/05/2026 12 PM PDT 31.63 8443 - Normal
09/05/2026 01 PM PDT 31.62 8426 - Normal
09/05/2026 02 PM PDT 31.61 8409 - Normal
09/05/2026 03 PM PDT 31.60 8392 - Normal
09/05/2026 04 PM PDT 31.59 8374 - Normal
09/05/2026 05 PM PDT 31.58 8357 - Normal
09/05/2026 06 PM PDT 31.58 8357 0 Normal
09/05/2026 07 PM PDT 31.57 8340 - Normal
09/05/2026 08 PM PDT 31.57 8340 0 Normal
09/05/2026 09 PM PDT 31.56 8323 - Normal
09/05/2026 10 PM PDT 31.56 8323 0 Normal
09/05/2026 11 PM PDT 31.56 8323 0 Normal
09/06/2026 12 AM PDT 31.56 8323 0 Normal
09/06/2026 01 AM PDT 31.55 8306 - Normal
09/06/2026 02 AM PDT 31.55 8306 0 Normal
09/06/2026 03 AM PDT 31.55 8306 0 Normal
09/06/2026 04 AM PDT 31.55 8306 0 Normal
09/06/2026 05 AM PDT 31.55 8306 0 Normal
09/06/2026 06 AM PDT 31.55 8306 0 Normal
09/06/2026 07 AM PDT 31.55 8306 0 Normal
09/06/2026 08 AM PDT 31.54 8289 - Normal
09/06/2026 09 AM PDT 31.54 8289 0 Normal
09/06/2026 10 AM PDT 31.54 8289 0 Normal
09/06/2026 11 AM PDT 31.54 8289 0 Normal
09/06/2026 12 PM PDT 31.54 8289 0 Normal
09/06/2026 01 PM PDT 31.54 8289 0 Normal
09/06/2026 02 PM PDT 31.54 8289 0 Normal
09/06/2026 03 PM PDT 31.54 8289 0 Normal
09/06/2026 04 PM PDT 31.54 8289 0 Normal
09/06/2026 05 PM PDT 31.54 8289 0 Normal
09/06/2026 06 PM PDT 31.54 8289 0 Normal
09/06/2026 07 PM PDT 31.54 8289 0 Normal
09/06/2026 08 PM PDT 31.54 8289 0 Normal
09/06/2026 09 PM PDT 31.54 8289 0 Normal
09/06/2026 10 PM PDT 31.54 8289 0 Normal
09/06/2026 11 PM PDT 31.54 8289 0 Normal
09/07/2026 12 AM PDT 31.54 8289 0 Normal
09/07/2026 01 AM PDT 31.54 8289 0 Normal
09/07/2026 02 AM PDT 31.54 8289 0 Normal
09/07/2026 03 AM PDT 31.54 8289 0 Normal
09/07/2026 04 AM PDT 31.54 8289 0 Normal
09/07/2026 05 AM PDT 31.54 8289 0 Normal
09/07/2026 06 AM PDT 31.54 8289 0 Normal
09/07/2026 07 AM PDT 31.54 8289 0 Normal
09/07/2026 08 AM PDT 31.54 8289 0 Normal
09/07/2026 09 AM PDT 31.54 8289 0 Normal
09/07/2026 10 AM PDT 31.54 8289 0 Normal
09/07/2026 11 AM PDT 31.54 8289 0 Normal
09/07/2026 12 PM PDT 31.54 8289 0 Normal
09/07/2026 01 PM PDT 31.54 8289 0 Normal
09/07/2026 02 PM PDT 31.54 8289 0 Normal
09/07/2026 03 PM PDT 31.54 8289 0 Normal
09/07/2026 04 PM PDT 31.54 8289 0 Normal
09/07/2026 05 PM PDT 31.54 8289 0 Normal
09/07/2026 06 PM PDT 31.54 8289 0 Normal
09/07/2026 07 PM PDT 31.54 8289 0 Normal
09/07/2026 08 PM PDT 31.54 8289 0 Normal
09/07/2026 09 PM PDT 31.54 8289 0 Normal
09/07/2026 10 PM PDT 31.54 8289 0 Normal
09/07/2026 11 PM PDT 31.54 8289 0 Normal
09/08/2026 12 AM PDT 31.54 8289 0 Normal
09/08/2026 01 AM PDT 31.54 8289 0 Normal
09/08/2026 02 AM PDT 31.54 8289 0 Normal
09/08/2026 03 AM PDT 31.54 8289 0 Normal
09/08/2026 04 AM PDT 31.54 8289 0 Normal
09/08/2026 05 AM PDT 31.54 8289 0 Normal
09/08/2026 06 AM PDT 31.54 8289 0 Normal
09/08/2026 07 AM PDT 31.54 8289 0 Normal
09/08/2026 08 AM PDT 31.54 8289 0 Normal
09/08/2026 09 AM PDT 31.54 8289 0 Normal
09/08/2026 10 AM PDT 31.54 8289 0 Normal
09/08/2026 11 AM PDT 31.54 8289 0 Normal
09/08/2026 12 PM PDT 31.54 8289 0 Normal
09/08/2026 01 PM PDT 31.54 8289 0 Normal
09/08/2026 02 PM PDT 31.54 8289 0 Normal
09/08/2026 03 PM PDT 31.54 8289 0 Normal
09/08/2026 04 PM PDT 31.54 8289 0 Normal
09/08/2026 05 PM PDT 31.54 8289 0 Normal
09/08/2026 06 PM PDT 31.54 8289 0 Normal
09/08/2026 07 PM PDT 31.54 8289 0 Normal
09/08/2026 08 PM PDT 31.53 8272 - Normal
09/08/2026 09 PM PDT 31.52 8254 - Normal
09/08/2026 10 PM PDT 31.51 8237 - Normal
09/08/2026 11 PM PDT 31.50 8220 - Normal
09/09/2026 12 AM PDT 31.48 8186 - Normal
09/09/2026 01 AM PDT 31.46 8152 - Normal
09/09/2026 02 AM PDT 31.45 8135 - Normal
09/09/2026 03 AM PDT 31.43 8101 - Normal
09/09/2026 04 AM PDT 31.41 8067 - Normal
09/09/2026 05 AM PDT 31.40 8050 - Normal
09/09/2026 06 AM PDT 31.38 8016 - Normal
09/09/2026 07 AM PDT 31.37 7999 - Normal
09/09/2026 08 AM PDT 31.36 7982 - Normal
09/09/2026 09 AM PDT 31.34 7948 - Normal
09/09/2026 10 AM PDT 31.34 7948 0 Normal
09/09/2026 11 AM PDT 31.33 7931 - Normal
09/09/2026 12 PM PDT 31.32 7914 - Normal
09/09/2026 01 PM PDT 31.31 7897 - Normal
09/09/2026 02 PM PDT 31.30 7880 - Normal
09/09/2026 03 PM PDT 31.30 7880 0 Normal
09/09/2026 04 PM PDT 31.29 7863 - Normal
09/09/2026 05 PM PDT 31.29 7863 0 Normal
09/09/2026 06 PM PDT 31.28 7846 - Normal
09/09/2026 07 PM PDT 31.28 7846 0 Normal
09/09/2026 08 PM PDT 31.27 7829 - Normal
09/09/2026 09 PM PDT 31.27 7829 0 Normal
09/09/2026 10 PM PDT 31.27 7829 0 Normal
09/09/2026 11 PM PDT 31.27 7829 0 Normal
09/10/2026 12 AM PDT 31.26 7812 - Normal
09/10/2026 01 AM PDT 31.26 7812 0 Normal
09/10/2026 02 AM PDT 31.26 7812 0 Normal
09/10/2026 03 AM PDT 31.26 7812 0 Normal
09/10/2026 04 AM PDT 31.26 7812 0 Normal
09/10/2026 05 AM PDT 31.26 7812 0 Normal
#
# NOTE 1: Stages are rounded to the nearest hundredth (.01) of a foot.
# NOTE 2: Flows are rounded to the nearest (1) cfs.
# NOTE 3: Trends are determined using hourly change in unrounded stage and flow.
# NOTE 4: Maximum Values are determined using unrounded stage and flow.
|